CSCL Oceania — VRBI2 — position and weather

sailwx.info

Track history (hours):
 
Tides and Currents Weather Stations Pressure Air Temp Water Temp Dewpoint Dewpoint Depression Visibility Wind Speed Wind Dir Waves Ship Positions

CSCL Oceania

Last reported at 2015-Mar-17 02:21 UTC. Time now 2015-Mar-27 13:19 UTC.
Position N 01°51' E 102°28'.
Warning: this ship's position is 10 days out of date.

Length 334 m; beam 42.8 m; draft 14.5 m.

Type: Cargo ship. MMSI: 477020300.

Date/timePositionNaut miles runAvg speedWind from/ knotsBaromVisibWave heightAir tempDewpointWater temp
2015-Mar-17 02:21N 01°51' E 102°28'911.1
2015-Mar-17 01:33N 01°47' E 102°36'1110.8
2015-Mar-17 00:33N 01°42' E 102°45'66 9.1
2015-Mar-16 17:16N 01°16' E 103°46'1 0.3
2015-Mar-16 14:20N 01°16' E 103°47'0 0.0
2015-Mar-16 12:29N 01°16' E 103°47'0 0.0
2015-Mar-16 11:32N 01°16' E 103°47'0 0.0
2015-Mar-16 10:33N 01°16' E 103°47'0 0.0
2015-Mar-16 09:33N 01°16' E 103°47'0 0.0
2015-Mar-16 08:33N 01°16' E 103°47'0 0.0
2015-Mar-16 06:32N 01°16' E 103°47'0 0.0
2015-Mar-16 05:27N 01°16' E 103°47'0 0.0
2015-Mar-16 04:24N 01°16' E 103°47'0 0.0
2015-Mar-16 02:18N 01°16' E 103°47'0 0.0
2015-Mar-16 01:24N 01°16' E 103°47'0 0.0
2015-Mar-15 23:32N 01°16' E 103°47'3 3.3
2015-Mar-15 22:33N 01°13' E 103°48'9 9.2
2015-Mar-15 21:33N 01°15' E 103°57'8 8.2
2015-Mar-15 20:33N 01°16' E 104°05'9 9.0
2015-Mar-15 19:32N 01°18' E 104°14'  
2015-Mar-11 20:07N 22°02' E 114°22'610.0
2015-Mar-11 19:30N 22°07' E 114°17'1110.3
2015-Mar-11 18:28N 22°14' E 114°09'6 7.1
2015-Mar-11 17:33N 22°20' E 114°07'0 0.2
2015-Mar-11 16:33N 22°20' E 114°07'0 0.0
2015-Mar-11 15:33N 22°20' E 114°07'0 0.0
2015-Mar-11 14:33N 22°20' E 114°07'0 0.1
2015-Mar-11 13:33N 22°20' E 114°07'0 0.1
2015-Mar-11 12:29N 22°20' E 114°07'0 0.0
2015-Mar-11 11:31N 22°20' E 114°07'0 0.0
2015-Mar-11 10:31N 22°20' E 114°07'0 0.0
2015-Mar-11 09:08N 22°20' E 114°07'0 0.0
2015-Mar-11 08:32N 22°20' E 114°07'0 0.0
2015-Mar-11 07:29N 22°20' E 114°07'0 0.0
2015-Mar-11 06:33N 22°20' E 114°07'0 0.0
2015-Mar-11 05:29N 22°20' E 114°07'0 0.0
2015-Mar-11 04:33N 22°20' E 114°07'0 0.0
2015-Mar-11 03:19N 22°20' E 114°07'0 0.0
2015-Mar-11 02:28N 22°20' E 114°07'0 0.0
2015-Mar-11 01:29N 22°20' E 114°07'0 0.0
2015-Mar-11 00:33N 22°20' E 114°07'8 7.5
2015-Mar-10 23:32N 22°13' E 114°10'8 8.2
2015-Mar-10 22:31N 22°07' E 114°17'1 1.3
2015-Mar-10 21:29N 22°06' E 114°15'7 6.7
2015-Mar-10 20:27N 22°12' E 114°11'1011.6
2015-Mar-10 19:33N 22°21' E 114°05'1111.3
2015-Mar-10 18:33N 22°25' E 113°53'5 4.5
2015-Mar-10 17:29N 22°29' E 113°52'0 0.0
2015-Mar-10 16:30N 22°29' E 113°52'0 0.0
2015-Mar-10 15:33N 22°29' E 113°52'0 0.0
2015-Mar-10 14:32N 22°29' E 113°52'0 0.0
2015-Mar-10 13:32N 22°29' E 113°52'0 0.0
2015-Mar-10 12:27N 22°29' E 113°52'0 0.0
2015-Mar-10 11:33N 22°29' E 113°52'4 4.4
2015-Mar-10 10:33N 22°25' E 113°53'9 9.0
2015-Mar-10 09:31N 22°21' E 114°02'1110.2
2015-Mar-10 08:27N 22°13' E 114°10'8 8.5
2015-Mar-10 07:29N 22°09' E 114°18'1010.0
2015-Mar-10 06:31N 22°08' E 114°28'6 5.9
2015-Mar-10 05:33N 22°08' E 114°34'224 8.6
2015-Mar-09 03:33N 23°44' E 118°14'10 9.9
2015-Mar-09 02:33N 23°50' E 118°22'1110.1
2015-Mar-09 01:30N 23°57' E 118°31'1915.9
2015-Mar-09 00:18N 24°09' E 118°48'1313.1
2015-Mar-08 23:17N 24°17' E 118°59'35210.6
2015-Mar-07 14:08N 29°15' E 122°30'915.2
2015-Mar-07 13:32N 29°23' E 122°32'1413.7
2015-Mar-07 12:30N 29°38' E 122°31'1213.0
2015-Mar-07 11:33N 29°45' E 122°19'1010.2
2015-Mar-07 10:33N 29°50' E 122°09'9 8.7
2015-Mar-07 09:33N 29°46' E 122°00'0 0.0
2015-Mar-07 08:04N 29°46' E 122°00'  
Track history (hours):
 
Tides and Currents Weather Stations Pressure Air Temp Water Temp Dewpoint Dewpoint Depression Visibility Wind Speed Wind Dir Waves Ship Positions

CSCL Oceania

Last reported at 2015-Mar-17 02:21 UTC. Time now 2015-Mar-27 13:19 UTC.
Position N 01°51' E 102°28'.
Warning: this ship's position is 10 days out of date.

Length 334 m; beam 42.8 m; draft 14.5 m.

Type: Cargo ship. MMSI: 477020300.

Date/timePositionNaut miles runAvg speedWind from/ knotsBaromVisibWave heightAir tempDewpointWater temp
2015-Mar-17 02:21N 01°51' E 102°28'911.1
2015-Mar-17 01:33N 01°47' E 102°36'1110.8
2015-Mar-17 00:33N 01°42' E 102°45'66 9.1
2015-Mar-16 17:16N 01°16' E 103°46'1 0.3
2015-Mar-16 14:20N 01°16' E 103°47'0 0.0
2015-Mar-16 12:29N 01°16' E 103°47'0 0.0
2015-Mar-16 11:32N 01°16' E 103°47'0 0.0
2015-Mar-16 10:33N 01°16' E 103°47'0 0.0
2015-Mar-16 09:33N 01°16' E 103°47'0 0.0
2015-Mar-16 08:33N 01°16' E 103°47'0 0.0
2015-Mar-16 06:32N 01°16' E 103°47'0 0.0
2015-Mar-16 05:27N 01°16' E 103°47'0 0.0
2015-Mar-16 04:24N 01°16' E 103°47'0 0.0
2015-Mar-16 02:18N 01°16' E 103°47'0 0.0
2015-Mar-16 01:24N 01°16' E 103°47'0 0.0
2015-Mar-15 23:32N 01°16' E 103°47'3 3.3
2015-Mar-15 22:33N 01°13' E 103°48'9 9.2
2015-Mar-15 21:33N 01°15' E 103°57'8 8.2
2015-Mar-15 20:33N 01°16' E 104°05'9 9.0
2015-Mar-15 19:32N 01°18' E 104°14'  
2015-Mar-11 20:07N 22°02' E 114°22'610.0
2015-Mar-11 19:30N 22°07' E 114°17'1110.3
2015-Mar-11 18:28N 22°14' E 114°09'6 7.1
2015-Mar-11 17:33N 22°20' E 114°07'0 0.2
2015-Mar-11 16:33N 22°20' E 114°07'0 0.0
2015-Mar-11 15:33N 22°20' E 114°07'0 0.0
2015-Mar-11 14:33N 22°20' E 114°07'0 0.1
2015-Mar-11 13:33N 22°20' E 114°07'0 0.1
2015-Mar-11 12:29N 22°20' E 114°07'0 0.0
2015-Mar-11 11:31N 22°20' E 114°07'0 0.0
2015-Mar-11 10:31N 22°20' E 114°07'0 0.0
2015-Mar-11 09:08N 22°20' E 114°07'0 0.0
2015-Mar-11 08:32N 22°20' E 114°07'0 0.0
2015-Mar-11 07:29N 22°20' E 114°07'0 0.0
2015-Mar-11 06:33N 22°20' E 114°07'0 0.0
2015-Mar-11 05:29N 22°20' E 114°07'0 0.0
2015-Mar-11 04:33N 22°20' E 114°07'0 0.0
2015-Mar-11 03:19N 22°20' E 114°07'0 0.0
2015-Mar-11 02:28N 22°20' E 114°07'0 0.0
2015-Mar-11 01:29N 22°20' E 114°07'0 0.0
2015-Mar-11 00:33N 22°20' E 114°07'8 7.5
2015-Mar-10 23:32N 22°13' E 114°10'8 8.2
2015-Mar-10 22:31N 22°07' E 114°17'1 1.3
2015-Mar-10 21:29N 22°06' E 114°15'7 6.7
2015-Mar-10 20:27N 22°12' E 114°11'1011.6
2015-Mar-10 19:33N 22°21' E 114°05'1111.3
2015-Mar-10 18:33N 22°25' E 113°53'5 4.5
2015-Mar-10 17:29N 22°29' E 113°52'0 0.0
2015-Mar-10 16:30N 22°29' E 113°52'0 0.0
2015-Mar-10 15:33N 22°29' E 113°52'0 0.0
2015-Mar-10 14:32N 22°29' E 113°52'0 0.0
2015-Mar-10 13:32N 22°29' E 113°52'0 0.0
2015-Mar-10 12:27N 22°29' E 113°52'0 0.0
2015-Mar-10 11:33N 22°29' E 113°52'4 4.4
2015-Mar-10 10:33N 22°25' E 113°53'9 9.0
2015-Mar-10 09:31N 22°21' E 114°02'1110.2
2015-Mar-10 08:27N 22°13' E 114°10'8 8.5
2015-Mar-10 07:29N 22°09' E 114°18'1010.0
2015-Mar-10 06:31N 22°08' E 114°28'6 5.9
2015-Mar-10 05:33N 22°08' E 114°34'224 8.6
2015-Mar-09 03:33N 23°44' E 118°14'10 9.9
2015-Mar-09 02:33N 23°50' E 118°22'1110.1
2015-Mar-09 01:30N 23°57' E 118°31'1915.9
2015-Mar-09 00:18N 24°09' E 118°48'1313.1
2015-Mar-08 23:17N 24°17' E 118°59'35210.6
2015-Mar-07 14:08N 29°15' E 122°30'915.2
2015-Mar-07 13:32N 29°23' E 122°32'1413.7
2015-Mar-07 12:30N 29°38' E 122°31'1213.0
2015-Mar-07 11:33N 29°45' E 122°19'1010.2
2015-Mar-07 10:33N 29°50' E 122°09'9 8.7
2015-Mar-07 09:33N 29°46' E 122°00'0 0.0
2015-Mar-07 08:04N 29°46' E 122°00'  

Dump ship's entire track history